sensor_id;sensor_type;location;lat;lon;timestamp;pressure;altitude;pressure_sealevel;temperature;humidity
72961;BME280;61141;46.204;19.774;2023-04-05T00:00:02;100556.84;;;2.93;54.02
72961;BME280;61141;46.204;19.774;2023-04-05T00:03:13;100560.22;;;2.99;53.94
72961;BME280;61141;46.204;19.774;2023-04-05T00:06:20;100553.97;;;2.90;53.88
72961;BME280;61141;46.204;19.774;2023-04-05T00:09:28;100557.31;;;2.87;54.19
72961;BME280;61141;46.204;19.774;2023-04-05T00:12:31;100574.91;;;2.67;53.79
72961;BME280;61141;46.204;19.774;2023-04-05T00:15:34;100552.66;;;2.70;53.90
72961;BME280;61141;46.204;19.774;2023-04-05T00:18:37;100580.41;;;2.84;53.88
72961;BME280;61141;46.204;19.774;2023-04-05T00:21:40;100577.75;;;2.62;54.39
72961;BME280;61141;46.204;19.774;2023-04-05T00:24:43;100567.34;;;2.56;54.42
72961;BME280;61141;46.204;19.774;2023-04-05T00:27:47;100544.59;;;2.48;54.30
72961;BME280;61141;46.204;19.774;2023-04-05T00:30:51;100546.47;;;2.78;54.30
72961;BME280;61141;46.204;19.774;2023-04-05T00:33:54;100546.00;;;2.85;54.32
72961;BME280;61141;46.204;19.774;2023-04-05T00:36:56;100543.50;;;2.58;54.48
72961;BME280;61141;46.204;19.774;2023-04-05T00:39:59;100561.22;;;2.72;54.27
72961;BME280;61141;46.204;19.774;2023-04-05T00:43:02;100560.19;;;2.51;54.64
72961;BME280;61141;46.204;19.774;2023-04-05T00:46:06;100549.84;;;2.53;54.38
72961;BME280;61141;46.204;19.774;2023-04-05T00:49:09;100559.44;;;2.59;54.06
72961;BME280;61141;46.204;19.774;2023-04-05T00:52:14;100554.53;;;2.39;55.04
72961;BME280;61141;46.204;19.774;2023-04-05T00:55:17;100557.16;;;2.53;54.58
72961;BME280;61141;46.204;19.774;2023-04-05T00:58:21;100568.28;;;2.51;54.78
72961;BME280;61141;46.204;19.774;2023-04-05T01:01:26;100564.38;;;2.35;54.31
72961;BME280;61141;46.204;19.774;2023-04-05T01:04:31;100559.28;;;2.33;54.64
72961;BME280;61141;46.204;19.774;2023-04-05T01:07:40;100564.75;;;2.20;54.83
72961;BME280;61141;46.204;19.774;2023-04-05T01:10:50;100576.19;;;2.17;55.08
72961;BME280;61141;46.204;19.774;2023-04-05T01:13:58;100569.75;;;2.26;54.84
72961;BME280;61141;46.204;19.774;2023-04-05T01:17:01;100548.06;;;1.96;55.02
72961;BME280;61141;46.204;19.774;2023-04-05T01:20:07;100567.59;;;2.15;54.99
72961;BME280;61141;46.204;19.774;2023-04-05T01:30:05;100539.09;;;2.09;54.82
72961;BME280;61141;46.204;19.774;2023-04-05T01:33:25;100555.56;;;2.21;54.79
72961;BME280;61141;46.204;19.774;2023-04-05T01:36:34;100541.19;;;2.12;54.42
72961;BME280;61141;46.204;19.774;2023-04-05T01:39:39;100538.47;;;2.12;54.29
72961;BME280;61141;46.204;19.774;2023-04-05T01:42:43;100549.09;;;2.30;55.07
72961;BME280;61141;46.204;19.774;2023-04-05T01:45:46;100557.59;;;2.15;54.00
72961;BME280;61141;46.204;19.774;2023-04-05T01:48:49;100535.78;;;1.90;54.05
72961;BME280;61141;46.204;19.774;2023-04-05T01:51:54;100547.06;;;2.14;54.12
72961;BME280;61141;46.204;19.774;2023-04-05T01:54:57;100534.91;;;2.03;54.67
72961;BME280;61141;46.204;19.774;2023-04-05T01:57:59;100532.22;;;2.03;54.09
72961;BME280;61141;46.204;19.774;2023-04-05T02:01:02;100532.75;;;1.91;54.77
72961;BME280;61141;46.204;19.774;2023-04-05T02:04:05;100533.28;;;1.93;55.49
72961;BME280;61141;46.204;19.774;2023-04-05T02:07:08;100533.09;;;1.90;54.38
72961;BME280;61141;46.204;19.774;2023-04-05T02:10:11;100535.84;;;1.76;54.94
72961;BME280;61141;46.204;19.774;2023-04-05T02:13:14;100534.03;;;1.71;54.90
72961;BME280;61141;46.204;19.774;2023-04-05T02:16:17;100529.25;;;1.91;55.22
72961;BME280;61141;46.204;19.774;2023-04-05T02:19:21;100540.03;;;1.82;54.64
72961;BME280;61141;46.204;19.774;2023-04-05T02:22:25;100536.53;;;1.82;54.64
72961;BME280;61141;46.204;19.774;2023-04-05T02:25:28;100546.41;;;1.86;54.72
72961;BME280;61141;46.204;19.774;2023-04-05T02:28:32;100545.75;;;1.67;55.62
72961;BME280;61141;46.204;19.774;2023-04-05T02:31:35;100551.16;;;1.67;54.88
72961;BME280;61141;46.204;19.774;2023-04-05T02:34:38;100553.09;;;1.89;54.98
72961;BME280;61141;46.204;19.774;2023-04-05T02:37:42;100556.91;;;1.88;55.37
72961;BME280;61141;46.204;19.774;2023-04-05T02:40:47;100540.91;;;1.55;54.78
72961;BME280;61141;46.204;19.774;2023-04-05T02:43:50;100563.28;;;1.92;55.37
72961;BME280;61141;46.204;19.774;2023-04-05T02:46:54;100546.81;;;1.57;54.82
72961;BME280;61141;46.204;19.774;2023-04-05T02:49:59;100560.25;;;1.71;54.95
72961;BME280;61141;46.204;19.774;2023-04-05T02:53:03;100562.91;;;1.85;55.85
72961;BME280;61141;46.204;19.774;2023-04-05T02:56:06;100565.34;;;1.72;55.02
72961;BME280;61141;46.204;19.774;2023-04-05T02:59:10;100554.69;;;1.90;55.91
72961;BME280;61141;46.204;19.774;2023-04-05T03:02:12;100557.97;;;1.64;54.59
72961;BME280;61141;46.204;19.774;2023-04-05T03:05:16;100564.50;;;1.50;54.93
72961;BME280;61141;46.204;19.774;2023-04-05T03:08:21;100559.13;;;1.72;55.18
72961;BME280;61141;46.204;19.774;2023-04-05T03:11:27;100558.56;;;1.61;55.12
72961;BME280;61141;46.204;19.774;2023-04-05T03:14:30;100566.09;;;1.87;55.06
72961;BME280;61141;46.204;19.774;2023-04-05T03:17:33;100563.84;;;1.66;54.98
72961;BME280;61141;46.204;19.774;2023-04-05T03:20:36;100564.84;;;1.35;55.12
72961;BME280;61141;46.204;19.774;2023-04-05T03:23:45;100566.41;;;1.36;55.14
72961;BME280;61141;46.204;19.774;2023-04-05T03:26:50;100571.66;;;1.32;55.49
72961;BME280;61141;46.204;19.774;2023-04-05T03:29:54;100569.91;;;1.50;55.01
72961;BME280;61141;46.204;19.774;2023-04-05T03:32:56;100558.00;;;1.51;55.01
72961;BME280;61141;46.204;19.774;2023-04-05T03:36:07;100547.44;;;1.41;56.16
72961;BME280;61141;46.204;19.774;2023-04-05T03:39:11;100567.31;;;1.45;55.44
72961;BME280;61141;46.204;19.774;2023-04-05T03:42:15;100576.81;;;1.42;55.44
72961;BME280;61141;46.204;19.774;2023-04-05T03:45:18;100574.41;;;1.54;55.58
72961;BME280;61141;46.204;19.774;2023-04-05T03:48:26;100564.53;;;1.23;55.53
72961;BME280;61141;46.204;19.774;2023-04-05T03:51:28;100576.09;;;1.50;55.71
72961;BME280;61141;46.204;19.774;2023-04-05T03:54:32;100565.91;;;1.47;55.41
72961;BME280;61141;46.204;19.774;2023-04-05T03:57:36;100576.63;;;1.25;55.48
72961;BME280;61141;46.204;19.774;2023-04-05T04:00:42;100580.13;;;1.39;55.63
72961;BME280;61141;46.204;19.774;2023-04-05T04:03:46;100576.84;;;1.29;55.78
72961;BME280;61141;46.204;19.774;2023-04-05T04:06:48;100582.00;;;1.39;55.36
72961;BME280;61141;46.204;19.774;2023-04-05T04:09:52;100586.44;;;1.35;55.87
72961;BME280;61141;46.204;19.774;2023-04-05T04:12:57;100594.81;;;1.33;55.37
72961;BME280;61141;46.204;19.774;2023-04-05T04:16:01;100583.59;;;1.53;55.19
72961;BME280;61141;46.204;19.774;2023-04-05T04:19:04;100584.41;;;1.54;54.87
72961;BME280;61141;46.204;19.774;2023-04-05T04:22:09;100588.59;;;1.60;54.73
72961;BME280;61141;46.204;19.774;2023-04-05T04:25:13;100598.69;;;1.54;55.24
72961;BME280;61141;46.204;19.774;2023-04-05T04:28:20;100606.19;;;1.57;54.75
72961;BME280;61141;46.204;19.774;2023-04-05T04:31:22;100593.19;;;1.59;54.83
72961;BME280;61141;46.204;19.774;2023-04-05T04:34:26;100596.34;;;1.75;55.97
72961;BME280;61141;46.204;19.774;2023-04-05T04:37:32;100599.78;;;1.53;55.04
72961;BME280;61141;46.204;19.774;2023-04-05T04:40:40;100605.69;;;1.91;54.98
72961;BME280;61141;46.204;19.774;2023-04-05T04:43:52;100595.44;;;1.66;56.24
72961;BME280;61141;46.204;19.774;2023-04-05T04:46:58;100601.47;;;1.63;56.07
72961;BME280;61141;46.204;19.774;2023-04-05T04:50:02;100592.22;;;1.01;56.91
72961;BME280;61141;46.204;19.774;2023-04-05T04:53:06;100608.78;;;1.62;57.29
72961;BME280;61141;46.204;19.774;2023-04-05T04:56:09;100620.37;;;1.49;56.33
72961;BME280;61141;46.204;19.774;2023-04-05T04:59:12;100617.25;;;1.69;56.52
72961;BME280;61141;46.204;19.774;2023-04-05T05:02:15;100619.47;;;1.67;56.75
72961;BME280;61141;46.204;19.774;2023-04-05T05:05:18;100615.91;;;1.81;56.15
72961;BME280;61141;46.204;19.774;2023-04-05T05:08:25;100609.63;;;1.71;55.83
72961;BME280;61141;46.204;19.774;2023-04-05T05:11:28;100613.41;;;1.48;56.91
72961;BME280;61141;46.204;19.774;2023-04-05T05:14:31;100602.53;;;1.75;57.13
72961;BME280;61141;46.204;19.774;2023-04-05T05:17:34;100625.62;;;1.82;56.33
72961;BME280;61141;46.204;19.774;2023-04-05T05:20:37;100610.44;;;2.08;56.63
72961;BME280;61141;46.204;19.774;2023-04-05T05:23:40;100618.50;;;1.86;55.92
72961;BME280;61141;46.204;19.774;2023-04-05T05:26:43;100612.50;;;1.89;56.38
72961;BME280;61141;46.204;19.774;2023-04-05T05:29:46;100600.31;;;1.77;55.96
72961;BME280;61141;46.204;19.774;2023-04-05T05:32:49;100622.31;;;1.85;56.26
72961;BME280;61141;46.204;19.774;2023-04-05T05:35:54;100618.12;;;1.78;56.19
72961;BME280;61141;46.204;19.774;2023-04-05T05:38:57;100622.12;;;1.81;55.90
72961;BME280;61141;46.204;19.774;2023-04-05T05:42:00;100626.59;;;2.21;55.21
72961;BME280;61141;46.204;19.774;2023-04-05T05:45:04;100622.59;;;2.19;55.49
72961;BME280;61141;46.204;19.774;2023-04-05T05:48:08;100626.28;;;2.23;55.96
72961;BME280;61141;46.204;19.774;2023-04-05T05:51:10;100624.91;;;4.26;50.92
72961;BME280;61141;46.204;19.774;2023-04-05T05:54:14;100623.75;;;3.49;50.24
72961;BME280;61141;46.204;19.774;2023-04-05T05:57:16;100634.91;;;4.68;48.26
72961;BME280;61141;46.204;19.774;2023-04-05T06:00:20;100618.75;;;5.56;46.78
72961;BME280;61141;46.204;19.774;2023-04-05T06:03:24;100623.66;;;4.14;49.41
72961;BME280;61141;46.204;19.774;2023-04-05T06:06:27;100611.16;;;2.97;52.07
72961;BME280;61141;46.204;19.774;2023-04-05T06:09:32;100630.88;;;3.37;51.14
72961;BME280;61141;46.204;19.774;2023-04-05T06:12:40;100618.50;;;2.74;53.13
72961;BME280;61141;46.204;19.774;2023-04-05T06:15:44;100613.94;;;2.53;52.57
72961;BME280;61141;46.204;19.774;2023-04-05T06:18:46;100621.19;;;3.05;52.84
72961;BME280;61141;46.204;19.774;2023-04-05T06:21:49;100617.66;;;3.35;51.94
72961;BME280;61141;46.204;19.774;2023-04-05T06:24:52;100615.94;;;3.00;53.29
72961;BME280;61141;46.204;19.774;2023-04-05T06:27:55;100624.38;;;2.68;52.81
72961;BME280;61141;46.204;19.774;2023-04-05T06:30:58;100626.25;;;2.89;51.77
72961;BME280;61141;46.204;19.774;2023-04-05T06:34:01;100624.91;;;2.78;52.61
72961;BME280;61141;46.204;19.774;2023-04-05T06:37:04;100619.75;;;2.99;52.27
72961;BME280;61141;46.204;19.774;2023-04-05T06:40:08;100611.91;;;2.89;53.28
72961;BME280;61141;46.204;19.774;2023-04-05T06:43:11;100632.78;;;2.66;53.23
72961;BME280;61141;46.204;19.774;2023-04-05T06:46:14;100628.19;;;2.97;51.83
72961;BME280;61141;46.204;19.774;2023-04-05T06:49:17;100627.13;;;3.16;52.63
72961;BME280;61141;46.204;19.774;2023-04-05T06:52:21;100624.69;;;3.45;51.25
72961;BME280;61141;46.204;19.774;2023-04-05T06:55:23;100635.81;;;3.43;50.66
72961;BME280;61141;46.204;19.774;2023-04-05T06:58:26;100646.69;;;3.13;51.63
72961;BME280;61141;46.204;19.774;2023-04-05T07:01:29;100625.19;;;3.08;51.69
72961;BME280;61141;46.204;19.774;2023-04-05T07:04:33;100626.00;;;3.08;51.48
72961;BME280;61141;46.204;19.774;2023-04-05T07:07:40;100638.94;;;3.20;51.39
72961;BME280;61141;46.204;19.774;2023-04-05T07:10:46;100634.88;;;3.48;50.66
72961;BME280;61141;46.204;19.774;2023-04-05T07:13:49;100652.88;;;3.44;50.59
72961;BME280;61141;46.204;19.774;2023-04-05T07:16:52;100643.50;;;3.50;50.41
72961;BME280;61141;46.204;19.774;2023-04-05T07:19:55;100606.94;;;3.22;50.82
72961;BME280;61141;46.204;19.774;2023-04-05T07:22:58;100632.09;;;3.87;50.50
72961;BME280;61141;46.204;19.774;2023-04-05T07:26:01;100642.91;;;3.62;50.05
72961;BME280;61141;46.204;19.774;2023-04-05T07:29:08;100649.88;;;3.54;50.30
72961;BME280;61141;46.204;19.774;2023-04-05T07:32:11;100639.28;;;3.83;49.64
72961;BME280;61141;46.204;19.774;2023-04-05T07:35:14;100633.16;;;3.52;50.09
72961;BME280;61141;46.204;19.774;2023-04-05T07:38:19;100644.13;;;3.47;50.39
72961;BME280;61141;46.204;19.774;2023-04-05T07:41:28;100641.28;;;3.61;50.26
72961;BME280;61141;46.204;19.774;2023-04-05T07:44:33;100627.16;;;3.81;48.79
72961;BME280;61141;46.204;19.774;2023-04-05T07:47:37;100646.13;;;4.15;48.85
72961;BME280;61141;46.204;19.774;2023-04-05T07:50:40;100668.47;;;4.21;49.36
72961;BME280;61141;46.204;19.774;2023-04-05T07:53:44;100639.44;;;3.78;49.23
72961;BME280;61141;46.204;19.774;2023-04-05T07:56:47;100637.97;;;6.75;45.57
72961;BME280;61141;46.204;19.774;2023-04-05T07:59:52;100638.91;;;5.17;45.65
72961;BME280;61141;46.204;19.774;2023-04-05T08:02:56;100638.28;;;4.65;47.19
72961;BME280;61141;46.204;19.774;2023-04-05T08:06:14;100653.44;;;4.66;47.19
72961;BME280;61141;46.204;19.774;2023-04-05T08:09:23;100653.28;;;4.54;47.41
72961;BME280;61141;46.204;19.774;2023-04-05T08:12:26;100644.50;;;5.20;46.56
72961;BME280;61141;46.204;19.774;2023-04-05T08:15:29;100639.31;;;4.98;46.31
72961;BME280;61141;46.204;19.774;2023-04-05T08:18:32;100643.94;;;4.98;46.20
72961;BME280;61141;46.204;19.774;2023-04-05T08:21:35;100634.75;;;4.73;46.58
72961;BME280;61141;46.204;19.774;2023-04-05T08:24:38;100652.81;;;4.69;46.41
72961;BME280;61141;46.204;19.774;2023-04-05T08:27:41;100652.47;;;4.62;45.85
72961;BME280;61141;46.204;19.774;2023-04-05T08:30:44;100648.31;;;4.73;45.72
72961;BME280;61141;46.204;19.774;2023-04-05T08:33:48;100647.03;;;4.79;45.46
72961;BME280;61141;46.204;19.774;2023-04-05T08:36:51;100638.41;;;4.86;46.76
72961;BME280;61141;46.204;19.774;2023-04-05T08:39:53;100645.22;;;4.92;46.35
72961;BME280;61141;46.204;19.774;2023-04-05T08:43:03;100649.88;;;5.96;45.57
72961;BME280;61141;46.204;19.774;2023-04-05T08:46:14;100656.38;;;5.45;44.28
72961;BME280;61141;46.204;19.774;2023-04-05T08:49:18;100659.41;;;5.73;44.35
72961;BME280;61141;46.204;19.774;2023-04-05T08:52:21;100650.37;;;5.60;44.28
72961;BME280;61141;46.204;19.774;2023-04-05T08:55:24;100666.91;;;5.09;45.48
72961;BME280;61141;46.204;19.774;2023-04-05T08:58:28;100655.16;;;5.93;44.72
72961;BME280;61141;46.204;19.774;2023-04-05T09:01:36;100664.94;;;5.18;45.47
72961;BME280;61141;46.204;19.774;2023-04-05T09:04:42;100652.06;;;5.73;44.97
72961;BME280;61141;46.204;19.774;2023-04-05T09:07:49;100652.38;;;5.43;44.86
72961;BME280;61141;46.204;19.774;2023-04-05T09:10:52;100667.53;;;5.06;44.54
72961;BME280;61141;46.204;19.774;2023-04-05T09:13:54;100662.81;;;5.61;44.46
72961;BME280;61141;46.204;19.774;2023-04-05T09:16:57;100685.31;;;4.86;45.26
72961;BME280;61141;46.204;19.774;2023-04-05T09:20:05;100667.16;;;5.62;45.21
72961;BME280;61141;46.204;19.774;2023-04-05T09:23:08;100662.81;;;5.61;44.73
72961;BME280;61141;46.204;19.774;2023-04-05T09:26:23;100663.31;;;5.63;45.21
72961;BME280;61141;46.204;19.774;2023-04-05T09:29:29;100649.41;;;5.36;45.71
72961;BME280;61141;46.204;19.774;2023-04-05T09:32:33;100659.03;;;5.54;44.59
72961;BME280;61141;46.204;19.774;2023-04-05T09:35:37;100647.53;;;5.57;44.04
72961;BME280;61141;46.204;19.774;2023-04-05T09:38:41;100664.03;;;5.72;44.58
72961;BME280;61141;46.204;19.774;2023-04-05T09:42:03;100676.38;;;5.41;44.08
72961;BME280;61141;46.204;19.774;2023-04-05T09:45:06;100654.25;;;5.51;43.91
72961;BME280;61141;46.204;19.774;2023-04-05T09:48:10;100663.03;;;5.56;43.41
72961;BME280;61141;46.204;19.774;2023-04-05T09:51:16;100655.28;;;5.67;43.68
72961;BME280;61141;46.204;19.774;2023-04-05T09:54:20;100657.28;;;6.28;43.66
72961;BME280;61141;46.204;19.774;2023-04-05T09:57:23;100658.34;;;6.57;41.63
72961;BME280;61141;46.204;19.774;2023-04-05T10:00:31;100651.13;;;7.54;41.67
72961;BME280;61141;46.204;19.774;2023-04-05T10:03:45;100674.25;;;6.67;41.56
72961;BME280;61141;46.204;19.774;2023-04-05T10:06:49;100656.44;;;6.69;41.85
72961;BME280;61141;46.204;19.774;2023-04-05T10:09:52;100664.37;;;7.19;41.29
72961;BME280;61141;46.204;19.774;2023-04-05T10:12:55;100661.66;;;6.74;41.04
72961;BME280;61141;46.204;19.774;2023-04-05T10:16:00;100671.88;;;6.77;42.02
72961;BME280;61141;46.204;19.774;2023-04-05T10:19:06;100671.22;;;6.47;42.42
72961;BME280;61141;46.204;19.774;2023-04-05T10:22:20;100665.03;;;6.38;41.83
72961;BME280;61141;46.204;19.774;2023-04-05T10:25:59;100657.19;;;6.58;41.99
72961;BME280;61141;46.204;19.774;2023-04-05T10:29:11;100658.34;;;6.36;41.85
72961;BME280;61141;46.204;19.774;2023-04-05T10:32:34;100657.78;;;7.08;41.73
72961;BME280;61141;46.204;19.774;2023-04-05T10:39:40;100653.19;;;6.88;41.93
72961;BME280;61141;46.204;19.774;2023-04-05T10:42:45;100662.25;;;6.80;41.70
72961;BME280;61141;46.204;19.774;2023-04-05T10:45:52;100644.53;;;6.41;42.15
72961;BME280;61141;46.204;19.774;2023-04-05T10:49:03;100646.34;;;7.15;41.83
72961;BME280;61141;46.204;19.774;2023-04-05T10:52:08;100642.03;;;7.26;40.28
72961;BME280;61141;46.204;19.774;2023-04-05T10:55:11;100647.03;;;7.36;40.38
72961;BME280;61141;46.204;19.774;2023-04-05T10:58:14;100655.53;;;7.46;41.42
72961;BME280;61141;46.204;19.774;2023-04-05T11:01:18;100643.06;;;7.57;40.50
72961;BME280;61141;46.204;19.774;2023-04-05T11:04:22;100655.75;;;7.17;41.35
72961;BME280;61141;46.204;19.774;2023-04-05T11:07:41;100631.91;;;7.02;41.98
72961;BME280;61141;46.204;19.774;2023-04-05T11:10:51;100636.31;;;6.94;41.54
72961;BME280;61141;46.204;19.774;2023-04-05T11:13:56;100651.25;;;7.69;42.02
72961;BME280;61141;46.204;19.774;2023-04-05T11:16:59;100669.50;;;6.43;41.69
72961;BME280;61141;46.204;19.774;2023-04-05T11:20:03;100645.69;;;6.73;42.13
72961;BME280;61141;46.204;19.774;2023-04-05T11:23:09;100650.84;;;6.54;41.85
72961;BME280;61141;46.204;19.774;2023-04-05T11:26:12;100647.59;;;5.98;42.34
72961;BME280;61141;46.204;19.774;2023-04-05T11:29:15;100646.72;;;6.80;42.03
72961;BME280;61141;46.204;19.774;2023-04-05T11:32:18;100655.09;;;7.68;41.55
72961;BME280;61141;46.204;19.774;2023-04-05T11:35:20;100645.25;;;8.28;39.00
72961;BME280;61141;46.204;19.774;2023-04-05T11:38:26;100634.75;;;7.78;39.38
72961;BME280;61141;46.204;19.774;2023-04-05T11:41:32;100636.56;;;7.74;39.21
72961;BME280;61141;46.204;19.774;2023-04-05T11:44:46;100620.56;;;7.73;40.24
72961;BME280;61141;46.204;19.774;2023-04-05T11:47:49;100636.38;;;7.43;40.17
72961;BME280;61141;46.204;19.774;2023-04-05T11:50:53;100626.78;;;7.85;39.20
72961;BME280;61141;46.204;19.774;2023-04-05T11:53:55;100620.81;;;7.67;39.92
72961;BME280;61141;46.204;19.774;2023-04-05T11:56:59;100626.31;;;7.95;39.87
72961;BME280;61141;46.204;19.774;2023-04-05T12:00:02;100625.53;;;7.70;40.08
72961;BME280;61141;46.204;19.774;2023-04-05T12:03:15;100620.22;;;7.74;40.33
72961;BME280;61141;46.204;19.774;2023-04-05T12:06:24;100623.75;;;7.50;40.41
72961;BME280;61141;46.204;19.774;2023-04-05T12:09:27;100617.94;;;8.28;39.96
72961;BME280;61141;46.204;19.774;2023-04-05T12:12:38;100623.25;;;7.97;38.98
72961;BME280;61141;46.204;19.774;2023-04-05T12:15:41;100604.69;;;7.38;40.43
72961;BME280;61141;46.204;19.774;2023-04-05T12:18:55;100606.16;;;7.12;40.72
72961;BME280;61141;46.204;19.774;2023-04-05T12:21:58;100613.87;;;7.70;40.42
72961;BME280;61141;46.204;19.774;2023-04-05T12:25:01;100599.25;;;8.42;39.48
72961;BME280;61141;46.204;19.774;2023-04-05T12:28:05;100614.66;;;7.46;39.94
72961;BME280;61141;46.204;19.774;2023-04-05T12:31:09;100608.38;;;7.82;40.08
72961;BME280;61141;46.204;19.774;2023-04-05T12:34:13;100604.44;;;7.43;40.71
72961;BME280;61141;46.204;19.774;2023-04-05T12:37:17;100615.12;;;7.12;40.52
72961;BME280;61141;46.204;19.774;2023-04-05T12:40:21;100617.84;;;7.24;41.09
72961;BME280;61141;46.204;19.774;2023-04-05T12:43:25;100611.78;;;7.79;41.46
72961;BME280;61141;46.204;19.774;2023-04-05T12:46:40;100616.00;;;7.77;40.83
72961;BME280;61141;46.204;19.774;2023-04-05T12:49:44;100611.81;;;7.55;39.64
72961;BME280;61141;46.204;19.774;2023-04-05T12:53:00;100605.44;;;7.75;39.73
72961;BME280;61141;46.204;19.774;2023-04-05T12:56:06;100607.88;;;8.44;38.85
72961;BME280;61141;46.204;19.774;2023-04-05T12:59:11;100598.31;;;7.46;39.83
72961;BME280;61141;46.204;19.774;2023-04-05T13:02:14;100598.91;;;7.28;40.29
72961;BME280;61141;46.204;19.774;2023-04-05T13:05:17;100603.84;;;7.74;40.35
72961;BME280;61141;46.204;19.774;2023-04-05T13:08:20;100593.53;;;7.55;40.91
72961;BME280;61141;46.204;19.774;2023-04-05T13:11:24;100615.34;;;7.67;39.25
72961;BME280;61141;46.204;19.774;2023-04-05T13:14:26;100590.13;;;8.81;38.38
72961;BME280;61141;46.204;19.774;2023-04-05T13:17:29;100596.06;;;8.99;37.92
72961;BME280;61141;46.204;19.774;2023-04-05T13:20:32;100578.88;;;9.65;38.08
72961;BME280;61141;46.204;19.774;2023-04-05T13:23:37;100577.38;;;9.01;37.73
72961;BME280;61141;46.204;19.774;2023-04-05T13:26:40;100581.59;;;8.99;37.89
72961;BME280;61141;46.204;19.774;2023-04-05T13:29:42;100579.91;;;8.07;39.59
72961;BME280;61141;46.204;19.774;2023-04-05T13:32:45;100586.41;;;8.03;40.21
72961;BME280;61141;46.204;19.774;2023-04-05T13:35:48;100589.66;;;7.68;39.79
72961;BME280;61141;46.204;19.774;2023-04-05T13:38:51;100592.38;;;7.81;40.03
72961;BME280;61141;46.204;19.774;2023-04-05T13:41:54;100573.25;;;8.20;39.35
72961;BME280;61141;46.204;19.774;2023-04-05T13:44:59;100586.19;;;7.96;38.73
72961;BME280;61141;46.204;19.774;2023-04-05T13:48:02;100584.62;;;7.83;38.97
72961;BME280;61141;46.204;19.774;2023-04-05T13:51:05;100582.09;;;8.73;37.91
72961;BME280;61141;46.204;19.774;2023-04-05T13:54:08;100579.84;;;9.06;37.40
72961;BME280;61141;46.204;19.774;2023-04-05T13:57:13;100575.09;;;9.19;37.60
72961;BME280;61141;46.204;19.774;2023-04-05T14:00:16;100575.34;;;9.29;35.16
72961;BME280;61141;46.204;19.774;2023-04-05T14:03:19;100586.22;;;7.84;36.83
72961;BME280;61141;46.204;19.774;2023-04-05T14:06:22;100573.94;;;8.17;37.01
72961;BME280;61141;46.204;19.774;2023-04-05T14:09:25;100562.91;;;8.69;37.59
72961;BME280;61141;46.204;19.774;2023-04-05T14:12:28;100569.28;;;8.46;37.34
72961;BME280;61141;46.204;19.774;2023-04-05T14:15:31;100563.34;;;8.87;36.71
72961;BME280;61141;46.204;19.774;2023-04-05T14:18:35;100560.81;;;8.07;37.59
72961;BME280;61141;46.204;19.774;2023-04-05T14:21:38;100567.88;;;7.32;38.29
72961;BME280;61141;46.204;19.774;2023-04-05T14:24:42;100567.13;;;7.84;37.94
72961;BME280;61141;46.204;19.774;2023-04-05T14:27:45;100568.84;;;8.28;38.09
72961;BME280;61141;46.204;19.774;2023-04-05T14:30:48;100564.38;;;8.23;36.87
72961;BME280;61141;46.204;19.774;2023-04-05T14:33:51;100552.69;;;8.66;37.02
72961;BME280;61141;46.204;19.774;2023-04-05T14:36:54;100553.00;;;9.43;36.40
72961;BME280;61141;46.204;19.774;2023-04-05T14:39:59;100552.97;;;9.78;36.41
72961;BME280;61141;46.204;19.774;2023-04-05T14:43:03;100549.13;;;9.28;37.98
72961;BME280;61141;46.204;19.774;2023-04-05T14:46:06;100565.13;;;9.11;37.73
72961;BME280;61141;46.204;19.774;2023-04-05T14:49:09;100568.97;;;8.78;37.72
72961;BME280;61141;46.204;19.774;2023-04-05T14:52:12;100579.31;;;8.14;38.29
72961;BME280;61141;46.204;19.774;2023-04-05T14:55:15;100565.22;;;8.12;38.44
72961;BME280;61141;46.204;19.774;2023-04-05T14:58:18;100556.13;;;7.68;38.33
72961;BME280;61141;46.204;19.774;2023-04-05T15:01:21;100568.50;;;8.45;38.24
72961;BME280;61141;46.204;19.774;2023-04-05T15:04:25;100565.97;;;8.52;38.12
72961;BME280;61141;46.204;19.774;2023-04-05T15:07:28;100570.31;;;9.16;37.58
72961;BME280;61141;46.204;19.774;2023-04-05T15:10:32;100573.66;;;9.09;37.16
72961;BME280;61141;46.204;19.774;2023-04-05T15:13:35;100572.44;;;9.07;36.88
72961;BME280;61141;46.204;19.774;2023-04-05T15:16:38;100577.91;;;8.32;37.30
72961;BME280;61141;46.204;19.774;2023-04-05T15:19:41;100574.94;;;8.25;38.04
72961;BME280;61141;46.204;19.774;2023-04-05T15:22:44;100563.81;;;8.30;38.96
72961;BME280;61141;46.204;19.774;2023-04-05T15:25:47;100580.69;;;8.48;38.26
72961;BME280;61141;46.204;19.774;2023-04-05T15:28:50;100587.25;;;8.31;37.66
72961;BME280;61141;46.204;19.774;2023-04-05T15:31:53;100568.56;;;8.76;37.94
72961;BME280;61141;46.204;19.774;2023-04-05T15:34:56;100586.13;;;8.48;37.62
72961;BME280;61141;46.204;19.774;2023-04-05T15:37:59;100580.31;;;8.49;37.90
72961;BME280;61141;46.204;19.774;2023-04-05T15:41:03;100583.75;;;8.62;38.40
72961;BME280;61141;46.204;19.774;2023-04-05T15:44:06;100579.53;;;8.49;37.98
72961;BME280;61141;46.204;19.774;2023-04-05T15:47:09;100578.38;;;8.22;38.31
72961;BME280;61141;46.204;19.774;2023-04-05T15:50:12;100573.94;;;8.89;38.14
72961;BME280;61141;46.204;19.774;2023-04-05T15:53:16;100573.38;;;8.52;37.94
72961;BME280;61141;46.204;19.774;2023-04-05T15:56:18;100577.72;;;9.00;37.88
72961;BME280;61141;46.204;19.774;2023-04-05T15:59:22;100556.28;;;8.70;37.80
72961;BME280;61141;46.204;19.774;2023-04-05T16:02:25;100580.03;;;8.39;37.16
72961;BME280;61141;46.204;19.774;2023-04-05T16:05:28;100569.91;;;8.39;37.98
72961;BME280;61141;46.204;19.774;2023-04-05T16:08:32;100570.47;;;8.05;38.73
72961;BME280;61141;46.204;19.774;2023-04-05T16:11:35;100567.06;;;8.08;39.25
72961;BME280;61141;46.204;19.774;2023-04-05T16:14:38;100565.97;;;7.85;39.38